AAF weather

Public forecast

Using degrees Fahrenheit for public forecast. Weather courtesy of forecast.io.

Current aviation weather report (METAR) for Apalachicola Regional Airport

Retrieved 2020/08/12 16:53 UTC (23 minutes ago):

KAAF 121653Z AUTO 15006KT 10SM CLR 32/25 A3004 RMK AO2 SLP172 T03170250 TSNO

Closest aviation forecast (TAF) to Apalachicola Regional Airport

Forecast is more than 12 hours old.

Closest forecast is Tyndall Air Force Base, 35.1 nm (65.1 km) NW. Retrieved 2020/08/11 19:19 UTC (22 hours ago):

TAF KPAM 111900Z 1119/1301 26012KT 9999 SCT035 SCT200 QNH2996INS TEMPO 1121/1124 30020G25KT 8000 TSRA SCT020CB BKN050 BECMG 1201/1202 28006KT 9999 SCT025 QNH2998INS BECMG 1216/1217 24009KT 9999 SCT050 BKN200 QNH2996INS TEMPO 1219/1222 24012G18KT 6000 TSRA SCT025CB BKN050 TX33/1120Z TN26/1210Z LAST NO AMDS AFT 1122 NEXT 1211